createdAt,value
2022-10-03T00:01:52.865Z,1.98
2022-10-03T00:04:38.340Z,2.17
2022-10-03T00:07:20.235Z,2.47
2022-10-03T00:10:03.989Z,2.28
2022-10-03T00:12:51.509Z,2.03
2022-10-03T00:15:26.279Z,2.22
2022-10-03T00:18:04.584Z,1.92
2022-10-03T00:21:03.968Z,2.25
2022-10-03T00:23:42.261Z,2.40
2022-10-03T00:26:30.770Z,1.92
2022-10-03T00:29:11.806Z,1.90
2022-10-03T00:31:47.386Z,1.80
2022-10-03T00:34:28.083Z,2.08
2022-10-03T00:37:11.892Z,2.35
2022-10-03T00:39:56.221Z,2.42
2022-10-03T00:42:57.774Z,2.50
2022-10-03T00:46:04.097Z,1.85
2022-10-03T00:49:04.592Z,2.00
2022-10-03T00:51:45.847Z,2.60
2022-10-03T00:54:32.791Z,2.50
2022-10-03T00:57:26.987Z,2.00
2022-10-03T01:00:08.060Z,2.70
2022-10-03T01:03:02.030Z,2.00
2022-10-03T01:05:45.429Z,2.00
2022-10-03T01:08:44.351Z,2.33
2022-10-03T01:11:30.225Z,2.30
2022-10-03T01:14:13.224Z,2.35
2022-10-03T01:16:47.715Z,2.05
2022-10-03T01:19:37.619Z,2.00
2022-10-03T01:22:23.960Z,2.08
2022-10-03T01:24:58.559Z,2.50
2022-10-03T01:27:59.650Z,2.58
2022-10-03T01:30:36.453Z,1.83
2022-10-03T01:33:11.335Z,1.65
2022-10-03T01:35:49.747Z,2.42
2022-10-03T01:38:26.355Z,2.38
2022-10-03T01:41:03.037Z,1.77
2022-10-03T01:43:42.714Z,2.25
2022-10-03T01:46:19.235Z,2.28
2022-10-03T01:48:57.112Z,2.40
2022-10-03T01:51:31.058Z,3.05
2022-10-03T01:54:20.053Z,2.83
2022-10-03T01:56:58.971Z,2.47
2022-10-03T01:59:37.351Z,2.05
2022-10-03T02:02:17.404Z,2.80
2022-10-03T02:04:53.699Z,1.83
2022-10-03T02:07:30.769Z,2.67
2022-10-03T02:10:10.765Z,2.25
2022-10-03T02:12:42.366Z,2.10
2022-10-03T02:15:18.896Z,2.67
2022-10-03T02:17:56.132Z,2.42
2022-10-03T02:20:32.234Z,2.33
2022-10-03T02:23:01.432Z,2.00
2022-10-03T02:25:44.151Z,2.63
2022-10-03T02:28:45.218Z,2.25
2022-10-03T02:31:45.651Z,2.35
2022-10-03T02:34:32.775Z,2.50
2022-10-03T02:37:33.903Z,2.15
2022-10-03T02:40:24.657Z,2.15
2022-10-03T02:43:35.108Z,1.90
2022-10-03T02:46:21.790Z,2.10
2022-10-03T02:49:12.524Z,1.95
2022-10-03T02:52:00.611Z,1.70
2022-10-03T02:55:05.298Z,1.95
2022-10-03T02:58:18.323Z,1.52
2022-10-03T03:01:21.423Z,1.38
2022-10-03T03:04:21.893Z,1.88
2022-10-03T03:07:19.805Z,1.50
2022-10-03T03:10:13.638Z,1.45
2022-10-03T03:13:01.627Z,1.55
2022-10-03T03:15:57.107Z,1.58
2022-10-03T03:18:34.702Z,1.50
2022-10-03T03:21:22.380Z,1.85
2022-10-03T03:24:16.772Z,1.83
2022-10-03T03:27:30.598Z,1.23
2022-10-03T03:30:06.662Z,1.70
2022-10-03T03:32:48.195Z,1.55
2022-10-03T03:35:27.676Z,1.48
2022-10-03T03:38:08.308Z,1.67
2022-10-03T03:40:53.061Z,1.40
2022-10-03T03:43:47.884Z,1.05
2022-10-03T03:46:27.615Z,1.05
2022-10-03T03:49:08.251Z,1.35
2022-10-03T03:51:46.547Z,1.13
2022-10-03T03:54:39.058Z,1.65
2022-10-03T03:57:30.242Z,1.83
2022-10-03T04:00:15.254Z,1.95
2022-10-03T04:02:56.565Z,1.63
2022-10-03T04:05:33.991Z,0.90
2022-10-03T04:08:22.404Z,1.38
2022-10-03T04:11:09.180Z,0.95
2022-10-03T04:13:58.755Z,1.08
2022-10-03T04:16:58.237Z,1.17
2022-10-03T04:19:34.488Z,1.52
2022-10-03T04:22:17.201Z,1.10
2022-10-03T04:25:05.412Z,1.13
2022-10-03T04:28:07.401Z,1.23
2022-10-03T04:30:47.718Z,1.25
2022-10-03T04:33:32.918Z,1.45
2022-10-03T04:36:27.409Z,1.35
2022-10-03T04:39:06.524Z,1.63
2022-10-03T04:41:43.816Z,1.27
2022-10-03T04:44:27.231Z,2.13
2022-10-03T04:47:02.826Z,1.25
2022-10-03T04:49:39.027Z,1.50
2022-10-03T04:52:19.424Z,1.40
2022-10-03T04:54:57.413Z,1.98
2022-10-03T04:57:33.043Z,1.38
2022-10-03T05:00:15.132Z,1.58
2022-10-03T05:02:52.427Z,1.70
2022-10-03T05:05:47.919Z,1.67
2022-10-03T05:08:30.076Z,1.33
2022-10-03T05:11:19.885Z,1.70
2022-10-03T05:13:59.981Z,1.85
2022-10-03T05:16:39.159Z,1.73
2022-10-03T05:19:38.714Z,1.67
2022-10-03T05:22:17.121Z,1.67
2022-10-03T05:24:52.054Z,1.40
2022-10-03T05:27:27.176Z,1.50
2022-10-03T05:30:03.018Z,1.65
2022-10-03T05:32:38.519Z,1.45
2022-10-03T05:35:26.159Z,1.63
2022-10-03T05:38:23.272Z,1.55
2022-10-03T05:41:04.540Z,1.23
2022-10-03T05:43:48.357Z,1.35
2022-10-03T05:46:32.077Z,1.10
2022-10-03T05:49:17.166Z,1.67
2022-10-03T05:52:01.589Z,2.08
2022-10-03T05:55:13.379Z,1.42
2022-10-03T05:58:02.406Z,1.45
2022-10-03T06:00:51.904Z,1.50
2022-10-03T06:03:51.076Z,1.40
2022-10-03T06:06:26.211Z,1.52
2022-10-03T06:09:13.739Z,1.50
2022-10-03T06:12:00.252Z,1.42
2022-10-03T06:14:38.755Z,1.92
2022-10-03T06:17:54.837Z,1.30
2022-10-03T06:21:08.634Z,1.30
2022-10-03T06:24:07.024Z,1.65
2022-10-03T06:27:12.933Z,1.63
2022-10-03T06:30:05.657Z,1.25
2022-10-03T06:33:13.915Z,1.30
2022-10-03T06:36:03.035Z,1.00
2022-10-03T06:39:10.522Z,1.40
2022-10-03T06:42:27.387Z,1.33
2022-10-03T06:45:35.808Z,1.00
2022-10-03T06:48:23.969Z,1.35
2022-10-03T06:51:14.121Z,1.30
2022-10-03T06:54:06.124Z,1.35
2022-10-03T06:57:04.675Z,1.45
2022-10-03T07:00:03.256Z,1.27
2022-10-03T07:03:14.446Z,1.88
2022-10-03T07:06:13.170Z,1.30
2022-10-03T07:09:22.422Z,1.45
2022-10-03T07:12:35.639Z,1.42
2022-10-03T07:16:08.804Z,1.35
2022-10-03T07:18:57.131Z,1.63
2022-10-03T07:21:59.823Z,1.45
2022-10-03T07:24:58.189Z,1.75
2022-10-03T07:27:51.492Z,1.55
2022-10-03T07:30:21.845Z,1.73
2022-10-03T07:33:19.936Z,1.30
2022-10-03T07:36:45.579Z,1.95
2022-10-03T07:39:35.878Z,1.50
2022-10-03T07:42:26.850Z,1.48
2022-10-03T07:45:31.119Z,2.00
2022-10-03T07:48:39.358Z,2.00
2022-10-03T07:51:19.959Z,1.73
2022-10-03T07:54:48.625Z,1.88
2022-10-03T07:57:32.010Z,2.17
2022-10-03T08:00:12.106Z,2.00
2022-10-03T08:03:12.601Z,2.08
2022-10-03T08:05:53.800Z,2.42
2022-10-03T08:08:43.992Z,2.17
2022-10-03T08:11:32.209Z,2.00
2022-10-03T08:14:12.021Z,2.58
2022-10-03T08:16:59.311Z,2.08
2022-10-03T08:19:52.805Z,1.92
2022-10-03T08:22:34.752Z,2.17
2022-10-03T08:25:28.110Z,2.50
2022-10-03T08:28:26.066Z,2.38
2022-10-03T08:31:18.985Z,1.98
2022-10-03T08:34:05.004Z,1.95
2022-10-03T08:36:59.006Z,2.13
2022-10-03T08:39:47.762Z,2.45
2022-10-03T08:42:46.858Z,2.13
2022-10-03T08:45:43.918Z,2.10
2022-10-03T08:48:41.713Z,2.10
2022-10-03T08:51:54.361Z,2.47
2022-10-03T08:54:50.942Z,2.95
2022-10-03T08:57:39.638Z,2.65
2022-10-03T09:00:28.444Z,2.45
2022-10-03T09:03:36.871Z,2.58
2022-10-03T09:07:18.953Z,2.25
2022-10-03T09:10:30.513Z,2.20
2022-10-03T09:13:28.236Z,2.15
2022-10-03T09:16:26.768Z,2.67
2022-10-03T09:19:08.834Z,2.15
2022-10-03T09:22:05.314Z,2.58
2022-10-03T09:25:18.462Z,2.50
2022-10-03T09:28:25.488Z,2.47
2022-10-03T09:31:04.179Z,2.65
2022-10-03T09:34:07.477Z,2.38
2022-10-03T09:37:14.307Z,2.58
2022-10-03T09:40:16.171Z,2.17
2022-10-03T09:43:31.263Z,2.35
2022-10-03T09:46:22.583Z,1.73
2022-10-03T09:49:18.138Z,2.58
2022-10-03T09:52:02.084Z,2.58
2022-10-03T09:55:18.195Z,2.63
2022-10-03T09:58:13.528Z,2.25
2022-10-03T10:01:08.040Z,2.47
2022-10-03T10:04:16.086Z,2.40
2022-10-03T10:07:13.754Z,2.80
2022-10-03T10:10:01.245Z,2.58
2022-10-03T10:12:58.480Z,3.10
2022-10-03T10:15:52.335Z,2.58
2022-10-03T10:18:39.174Z,2.70
2022-10-03T10:21:37.324Z,2.33
2022-10-03T10:24:48.600Z,2.25
2022-10-03T10:28:00.254Z,2.75
2022-10-03T10:31:08.264Z,2.53
2022-10-03T10:34:14.660Z,1.92
2022-10-03T10:37:30.166Z,1.92
2022-10-03T10:40:34.777Z,1.90
2022-10-03T10:43:39.528Z,1.80
2022-10-03T10:46:37.936Z,2.17
2022-10-03T10:49:42.358Z,2.13
2022-10-03T10:52:46.743Z,1.85
2022-10-03T10:55:51.371Z,2.30
2022-10-03T10:59:12.528Z,2.05
2022-10-03T11:02:14.635Z,1.88
2022-10-03T11:05:29.858Z,1.77
2022-10-03T11:08:55.144Z,1.92
2022-10-03T11:12:26.193Z,1.77
2022-10-03T11:15:38.499Z,1.65
2022-10-03T11:18:43.166Z,1.75
2022-10-03T11:21:39.981Z,1.90
2022-10-03T11:24:35.127Z,2.05
2022-10-03T11:27:53.158Z,1.52
2022-10-03T11:30:50.076Z,1.63
2022-10-03T11:34:03.465Z,1.50
2022-10-03T11:37:10.769Z,1.67
2022-10-03T11:39:48.307Z,1.90
2022-10-03T11:42:46.325Z,1.83
2022-10-03T11:45:23.896Z,1.67
2022-10-03T11:47:58.788Z,1.70
2022-10-03T11:50:44.983Z,1.52
2022-10-03T11:53:23.639Z,1.58
2022-10-03T11:56:02.235Z,1.50
2022-10-03T11:58:48.125Z,1.52
2022-10-03T12:01:26.025Z,1.80
2022-10-03T12:04:04.318Z,1.77
2022-10-03T12:07:14.246Z,1.45
2022-10-03T12:09:57.160Z,1.15
2022-10-03T12:12:37.883Z,1.42
2022-10-03T12:15:27.381Z,1.70
2022-10-03T12:18:05.838Z,1.60
2022-10-03T12:20:46.337Z,1.60
2022-10-03T12:23:30.370Z,1.17
2022-10-03T12:26:02.663Z,1.30
2022-10-03T12:28:37.221Z,1.50
2022-10-03T12:31:18.890Z,1.17
2022-10-03T12:33:53.435Z,1.42
2022-10-03T12:36:30.801Z,1.10
2022-10-03T12:39:22.053Z,1.50
2022-10-03T12:42:01.820Z,1.40
2022-10-03T12:44:44.023Z,1.33
2022-10-03T12:47:53.851Z,1.40
2022-10-03T12:50:32.682Z,1.80
2022-10-03T12:53:23.815Z,1.33
2022-10-03T12:56:06.492Z,1.67
2022-10-03T12:58:46.614Z,1.50
2022-10-03T13:01:24.322Z,1.95
2022-10-03T13:03:57.034Z,2.00
2022-10-03T13:07:02.783Z,2.33
2022-10-03T13:09:52.338Z,2.15
2022-10-03T13:12:34.386Z,1.70
2022-10-03T13:15:45.590Z,2.33
2022-10-03T13:18:35.424Z,2.15
2022-10-03T13:21:33.294Z,2.67
2022-10-03T13:24:04.629Z,2.20
2022-10-03T13:26:54.660Z,2.25
2022-10-03T13:29:30.125Z,2.03
2022-10-03T13:32:12.177Z,1.85
2022-10-03T13:34:57.623Z,2.30
2022-10-03T13:37:36.584Z,2.00
2022-10-03T13:40:09.300Z,2.33
2022-10-03T13:42:41.842Z,2.00
2022-10-03T13:45:18.772Z,1.73
2022-10-03T13:47:53.930Z,2.38
2022-10-03T13:50:29.051Z,2.05
2022-10-03T13:53:03.482Z,2.13
2022-10-03T13:55:42.825Z,2.00
2022-10-03T13:58:44.432Z,1.90
2022-10-03T14:01:30.170Z,2.58
2022-10-03T14:04:21.195Z,2.50
2022-10-03T14:06:54.169Z,2.08
2022-10-03T14:09:47.759Z,1.90
2022-10-03T14:12:38.121Z,2.65
2022-10-03T14:15:24.700Z,2.20
2022-10-03T14:18:05.450Z,1.80
2022-10-03T14:20:39.732Z,2.22
2022-10-03T14:23:19.561Z,2.08
2022-10-03T14:26:00.129Z,2.35
2022-10-03T14:28:35.917Z,1.92
2022-10-03T14:31:11.457Z,2.38
2022-10-03T14:33:47.026Z,1.95
2022-10-03T14:36:29.834Z,2.17
2022-10-03T14:39:28.507Z,2.17
2022-10-03T14:42:25.302Z,1.70
2022-10-03T14:44:57.691Z,2.92
2022-10-03T14:47:28.292Z,2.80
2022-10-03T14:50:00.574Z,2.72
2022-10-03T14:52:35.338Z,2.13
2022-10-03T14:55:13.392Z,3.30
2022-10-03T14:58:09.278Z,3.13
2022-10-03T15:00:43.054Z,2.65
2022-10-03T15:03:23.664Z,3.05
2022-10-03T15:06:18.868Z,3.45
2022-10-03T15:08:49.668Z,2.85
2022-10-03T15:11:24.045Z,3.30
2022-10-03T15:13:57.711Z,3.10
2022-10-03T15:16:27.489Z,3.08
2022-10-03T15:18:58.719Z,2.92
2022-10-03T15:21:28.598Z,3.20
2022-10-03T15:24:02.037Z,3.45
2022-10-03T15:26:34.916Z,3.28
2022-10-03T15:29:07.478Z,3.17
2022-10-03T15:31:38.201Z,3.20
2022-10-03T15:34:17.661Z,3.22
2022-10-03T15:36:50.863Z,3.60
2022-10-03T15:39:23.187Z,3.30
2022-10-03T15:41:55.858Z,3.75
2022-10-03T15:44:33.807Z,3.42
2022-10-03T15:47:07.420Z,3.10
2022-10-03T15:49:39.810Z,3.35
2022-10-03T15:52:17.063Z,3.08
2022-10-03T15:54:49.647Z,2.83
2022-10-03T15:57:24.194Z,2.70
2022-10-03T16:00:03.308Z,3.20
2022-10-03T16:02:36.519Z,2.97
2022-10-03T16:05:10.151Z,2.30
2022-10-03T16:07:45.432Z,2.75
2022-10-03T16:10:20.939Z,2.53
2022-10-03T16:13:00.245Z,2.92
2022-10-03T16:15:39.764Z,3.20
2022-10-03T16:18:32.018Z,1.80
2022-10-03T16:21:02.720Z,2.28
2022-10-03T16:23:36.737Z,2.17
2022-10-03T16:26:08.090Z,2.45
2022-10-03T16:28:41.994Z,2.50
2022-10-03T16:31:21.218Z,2.45
2022-10-03T16:33:58.185Z,2.90
2022-10-03T16:36:27.433Z,2.75
2022-10-03T16:38:59.324Z,2.70
2022-10-03T16:41:31.787Z,2.40
2022-10-03T16:44:02.055Z,2.53
2022-10-03T16:46:35.283Z,2.35
2022-10-03T16:49:28.508Z,3.22
2022-10-03T16:52:03.265Z,2.38
2022-10-03T16:54:33.452Z,2.85
2022-10-03T16:57:07.687Z,2.75
2022-10-03T16:59:39.135Z,2.55
2022-10-03T17:02:15.405Z,2.58
2022-10-03T17:04:47.433Z,2.80
2022-10-03T17:07:21.266Z,2.65
2022-10-03T17:09:52.501Z,3.05
2022-10-03T17:12:26.896Z,2.90
2022-10-03T17:14:58.367Z,2.90
2022-10-03T17:17:35.761Z,2.88
2022-10-03T17:20:08.801Z,2.40
2022-10-03T17:22:41.681Z,3.10
2022-10-03T17:25:39.113Z,3.00
2022-10-03T17:28:14.087Z,2.67
2022-10-03T17:30:49.245Z,3.45
2022-10-03T17:33:24.785Z,3.00
2022-10-03T17:36:02.814Z,2.92
2022-10-03T17:38:49.395Z,3.35
2022-10-03T17:41:23.607Z,3.05
2022-10-03T17:44:17.208Z,3.88
2022-10-03T17:46:54.004Z,3.13
2022-10-03T17:49:32.833Z,2.80
2022-10-03T17:52:01.426Z,3.83
2022-10-03T17:54:33.141Z,3.22
2022-10-03T17:57:07.178Z,3.85
2022-10-03T17:59:48.513Z,3.45
2022-10-03T18:02:22.286Z,3.20
2022-10-03T18:05:04.709Z,3.40
2022-10-03T18:07:36.435Z,3.25
2022-10-03T18:10:06.987Z,2.80
2022-10-03T18:12:40.396Z,3.70
2022-10-03T18:15:35.622Z,3.63
2022-10-03T18:18:21.353Z,3.90
2022-10-03T18:20:58.538Z,3.40
2022-10-03T18:23:54.150Z,4.07
2022-10-03T18:26:29.010Z,3.53
2022-10-03T18:29:11.652Z,3.88
2022-10-03T18:31:45.378Z,3.85
2022-10-03T18:34:21.013Z,3.60
2022-10-03T18:36:54.138Z,3.38
2022-10-03T18:39:26.236Z,3.67
2022-10-03T18:41:58.690Z,3.90
2022-10-03T18:44:29.531Z,3.15
2022-10-03T18:47:12.564Z,3.25
2022-10-03T18:49:44.947Z,2.83
2022-10-03T18:52:20.500Z,3.40
2022-10-03T18:54:59.387Z,3.65
2022-10-03T18:57:35.760Z,3.30
2022-10-03T19:00:08.975Z,3.38
2022-10-03T19:02:42.418Z,3.38
2022-10-03T19:05:17.517Z,3.40
2022-10-03T19:07:54.696Z,3.20
2022-10-03T19:10:32.885Z,3.35
2022-10-03T19:13:10.215Z,2.75
2022-10-03T19:15:49.730Z,3.15
2022-10-03T19:18:26.309Z,2.78
2022-10-03T19:20:57.106Z,2.63
2022-10-03T19:23:32.973Z,2.22
2022-10-03T19:26:06.409Z,3.28
2022-10-03T19:28:37.720Z,2.88
2022-10-03T19:31:10.380Z,3.05
2022-10-03T19:33:45.165Z,3.15
2022-10-03T19:36:17.766Z,2.92
2022-10-03T19:38:49.153Z,2.92
2022-10-03T19:41:29.020Z,2.58
2022-10-03T19:44:04.164Z,2.72
2022-10-03T19:46:45.854Z,2.70
2022-10-03T19:49:33.591Z,2.60
2022-10-03T19:52:22.048Z,2.50
2022-10-03T19:55:00.996Z,2.80
2022-10-03T19:57:41.114Z,2.42
2022-10-03T20:00:23.635Z,3.22
2022-10-03T20:02:58.396Z,3.10
2022-10-03T20:05:32.748Z,3.05
2022-10-03T20:08:08.566Z,2.60
2022-10-03T20:10:58.334Z,2.67
2022-10-03T20:13:26.708Z,2.50
2022-10-03T20:15:58.617Z,2.80
2022-10-03T20:18:33.572Z,2.40
2022-10-03T20:21:04.549Z,2.45
2022-10-03T20:23:35.945Z,2.92
2022-10-03T20:26:10.813Z,3.05
2022-10-03T20:29:04.644Z,2.50
2022-10-03T20:31:34.959Z,2.88
2022-10-03T20:34:06.990Z,3.20
2022-10-03T20:36:41.166Z,2.28
2022-10-03T20:39:17.008Z,3.40
2022-10-03T20:41:59.516Z,2.20
2022-10-03T20:44:56.739Z,2.55
2022-10-03T20:47:43.972Z,2.40
2022-10-03T20:50:20.811Z,2.13
2022-10-03T20:52:55.409Z,2.60
2022-10-03T20:55:27.778Z,2.38
2022-10-03T20:58:06.900Z,3.08
2022-10-03T21:00:44.954Z,2.45
2022-10-03T21:03:23.023Z,2.20
2022-10-03T21:05:53.701Z,2.20
2022-10-03T21:08:24.707Z,1.73
2022-10-03T21:10:56.979Z,1.65
2022-10-03T21:13:33.352Z,1.75
2022-10-03T21:16:04.228Z,1.65
2022-10-03T21:18:35.658Z,2.17
2022-10-03T21:21:09.849Z,2.88
2022-10-03T21:23:49.723Z,2.28
2022-10-03T21:26:22.521Z,1.42
2022-10-03T21:29:19.656Z,2.53
2022-10-03T21:31:53.741Z,3.03
2022-10-03T21:34:29.998Z,2.10
2022-10-03T21:37:08.313Z,1.70
2022-10-03T21:39:45.509Z,2.03
2022-10-03T21:42:22.348Z,2.10
2022-10-03T21:45:15.285Z,2.47
2022-10-03T21:47:49.073Z,2.35
2022-10-03T21:50:23.119Z,1.70
2022-10-03T21:53:18.549Z,2.25
2022-10-03T21:56:12.689Z,2.20
2022-10-03T21:59:05.715Z,2.15
2022-10-03T22:01:43.114Z,2.47
2022-10-03T22:04:20.610Z,2.28
2022-10-03T22:06:53.571Z,2.00
2022-10-03T22:09:22.127Z,2.90
2022-10-03T22:11:56.082Z,2.10
2022-10-03T22:14:37.117Z,2.47
2022-10-03T22:17:15.955Z,1.95
2022-10-03T22:19:48.864Z,2.53
2022-10-03T22:22:39.339Z,2.45
2022-10-03T22:25:19.721Z,2.47
2022-10-03T22:27:59.894Z,2.70
2022-10-03T22:30:31.152Z,2.42
2022-10-03T22:33:12.155Z,2.28
2022-10-03T22:35:50.872Z,2.30
2022-10-03T22:38:22.695Z,3.22
2022-10-03T22:40:51.980Z,2.30
2022-10-03T22:43:21.755Z,2.22
2022-10-03T22:45:53.222Z,2.60
2022-10-03T22:48:26.443Z,2.42
2022-10-03T22:50:56.604Z,2.28
2022-10-03T22:53:29.444Z,1.73
2022-10-03T22:55:59.965Z,2.05
2022-10-03T22:58:31.259Z,2.58
2022-10-03T23:01:02.578Z,2.40
2022-10-03T23:03:35.291Z,2.22
2022-10-03T23:06:37.106Z,2.33
2022-10-03T23:09:16.695Z,2.55
2022-10-03T23:11:48.108Z,2.00
2022-10-03T23:14:20.898Z,2.13
2022-10-03T23:16:54.684Z,1.63
2022-10-03T23:19:33.212Z,2.03
2022-10-03T23:22:02.248Z,2.40
2022-10-03T23:24:36.057Z,1.67
2022-10-03T23:27:39.754Z,2.13
2022-10-03T23:30:48.806Z,2.53
2022-10-03T23:33:19.740Z,2.72
2022-10-03T23:35:51.143Z,1.70
2022-10-03T23:38:59.942Z,2.13
2022-10-03T23:41:56.456Z,2.92
2022-10-03T23:44:35.507Z,2.15
2022-10-03T23:47:07.318Z,2.58
2022-10-03T23:49:39.974Z,1.95
2022-10-03T23:52:15.569Z,2.13
2022-10-03T23:54:45.132Z,2.15
2022-10-03T23:57:16.982Z,1.90
2022-10-03T23:59:45.828Z,2.17
